sensor_id;sensor_type;location;lat;lon;timestamp;P1;durP1;ratioP1;P2;durP2;ratioP2
76228;SDS011;65021;53.174;18.160;2023-06-22T00:01:20;11.70;;;5.60;;
76228;SDS011;65021;53.174;18.160;2023-06-22T00:03:48;8.30;;;5.60;;
76228;SDS011;65021;53.174;18.160;2023-06-22T00:06:14;9.20;;;6.00;;
76228;SDS011;65021;53.174;18.160;2023-06-22T00:08:41;9.50;;;5.50;;
76228;SDS011;65021;53.174;18.160;2023-06-22T00:11:08;8.80;;;6.20;;
76228;SDS011;65021;53.174;18.160;2023-06-22T00:13:35;9.30;;;5.50;;
76228;SDS011;65021;53.174;18.160;2023-06-22T00:16:01;7.50;;;4.90;;
76228;SDS011;65021;53.174;18.160;2023-06-22T00:18:28;9.10;;;5.70;;
76228;SDS011;65021;53.174;18.160;2023-06-22T00:20:56;10.00;;;5.70;;
76228;SDS011;65021;53.174;18.160;2023-06-22T00:23:24;10.60;;;5.70;;
76228;SDS011;65021;53.174;18.160;2023-06-22T00:25:51;9.60;;;5.70;;
76228;SDS011;65021;53.174;18.160;2023-06-22T00:28:18;9.40;;;5.30;;
76228;SDS011;65021;53.174;18.160;2023-06-22T00:30:45;8.20;;;5.00;;
76228;SDS011;65021;53.174;18.160;2023-06-22T00:33:12;9.50;;;6.40;;
76228;SDS011;65021;53.174;18.160;2023-06-22T00:35:38;7.20;;;5.00;;
76228;SDS011;65021;53.174;18.160;2023-06-22T00:38:07;8.30;;;5.70;;
76228;SDS011;65021;53.174;18.160;2023-06-22T00:40:34;10.30;;;6.20;;
76228;SDS011;65021;53.174;18.160;2023-06-22T00:43:01;8.80;;;5.90;;
76228;SDS011;65021;53.174;18.160;2023-06-22T00:45:28;9.30;;;6.10;;
76228;SDS011;65021;53.174;18.160;2023-06-22T00:47:56;8.90;;;6.20;;
76228;SDS011;65021;53.174;18.160;2023-06-22T00:50:24;10.50;;;6.10;;
76228;SDS011;65021;53.174;18.160;2023-06-22T00:55:22;11.40;;;7.40;;
76228;SDS011;65021;53.174;18.160;2023-06-22T00:57:49;10.00;;;6.80;;
76228;SDS011;65021;53.174;18.160;2023-06-22T01:00:16;9.40;;;5.70;;
76228;SDS011;65021;53.174;18.160;2023-06-22T01:02:45;11.60;;;6.90;;
76228;SDS011;65021;53.174;18.160;2023-06-22T01:05:14;9.40;;;6.60;;
76228;SDS011;65021;53.174;18.160;2023-06-22T01:16:20;8.70;;;6.00;;
76228;SDS011;65021;53.174;18.160;2023-06-22T01:18:52;10.20;;;6.40;;
76228;SDS011;65021;53.174;18.160;2023-06-22T01:21:22;8.70;;;6.80;;
76228;SDS011;65021;53.174;18.160;2023-06-22T01:26:38;9.90;;;5.10;;
76228;SDS011;65021;53.174;18.160;2023-06-22T01:31:40;8.00;;;5.50;;
76228;SDS011;65021;53.174;18.160;2023-06-22T01:34:08;8.10;;;5.50;;
76228;SDS011;65021;53.174;18.160;2023-06-22T01:36:37;9.90;;;5.70;;
76228;SDS011;65021;53.174;18.160;2023-06-22T01:39:05;9.80;;;5.20;;
76228;SDS011;65021;53.174;18.160;2023-06-22T01:41:33;8.80;;;4.90;;
76228;SDS011;65021;53.174;18.160;2023-06-22T01:46:29;8.20;;;4.40;;
76228;SDS011;65021;53.174;18.160;2023-06-22T01:48:55;9.90;;;4.90;;
76228;SDS011;65021;53.174;18.160;2023-06-22T01:51:22;7.70;;;4.50;;
76228;SDS011;65021;53.174;18.160;2023-06-22T01:53:49;7.80;;;4.90;;
76228;SDS011;65021;53.174;18.160;2023-06-22T01:56:16;7.00;;;3.40;;
76228;SDS011;65021;53.174;18.160;2023-06-22T01:58:48;7.10;;;3.90;;
76228;SDS011;65021;53.174;18.160;2023-06-22T02:01:23;9.10;;;4.10;;
76228;SDS011;65021;53.174;18.160;2023-06-22T02:03:59;8.90;;;4.30;;
76228;SDS011;65021;53.174;18.160;2023-06-22T02:06:34;6.50;;;4.20;;
76228;SDS011;65021;53.174;18.160;2023-06-22T02:09:08;9.80;;;4.00;;
76228;SDS011;65021;53.174;18.160;2023-06-22T02:11:37;6.80;;;4.60;;
76228;SDS011;65021;53.174;18.160;2023-06-22T02:14:07;6.90;;;4.50;;
76228;SDS011;65021;53.174;18.160;2023-06-22T02:16:35;8.90;;;4.80;;
76228;SDS011;65021;53.174;18.160;2023-06-22T02:19:02;7.00;;;4.90;;
76228;SDS011;65021;53.174;18.160;2023-06-22T02:21:32;7.80;;;4.80;;
76228;SDS011;65021;53.174;18.160;2023-06-22T02:23:58;12.30;;;4.80;;
76228;SDS011;65021;53.174;18.160;2023-06-22T02:26:25;8.60;;;4.10;;
76228;SDS011;65021;53.174;18.160;2023-06-22T02:28:53;7.00;;;4.20;;
76228;SDS011;65021;53.174;18.160;2023-06-22T02:31:20;10.10;;;4.30;;
76228;SDS011;65021;53.174;18.160;2023-06-22T02:33:46;7.60;;;3.40;;
76228;SDS011;65021;53.174;18.160;2023-06-22T02:36:14;11.20;;;4.40;;
76228;SDS011;65021;53.174;18.160;2023-06-22T02:38:41;9.10;;;4.50;;
76228;SDS011;65021;53.174;18.160;2023-06-22T02:41:16;7.50;;;4.10;;
76228;SDS011;65021;53.174;18.160;2023-06-22T02:43:44;5.50;;;2.90;;
76228;SDS011;65021;53.174;18.160;2023-06-22T02:46:12;8.70;;;3.80;;
76228;SDS011;65021;53.174;18.160;2023-06-22T02:48:40;7.40;;;4.30;;
76228;SDS011;65021;53.174;18.160;2023-06-22T02:51:07;9.80;;;3.70;;
76228;SDS011;65021;53.174;18.160;2023-06-22T02:53:34;8.00;;;3.90;;
76228;SDS011;65021;53.174;18.160;2023-06-22T02:56:01;7.70;;;4.50;;
76228;SDS011;65021;53.174;18.160;2023-06-22T02:58:31;6.50;;;4.30;;
76228;SDS011;65021;53.174;18.160;2023-06-22T03:01:04;6.50;;;3.90;;
76228;SDS011;65021;53.174;18.160;2023-06-22T03:03:31;9.00;;;4.20;;
76228;SDS011;65021;53.174;18.160;2023-06-22T03:05:58;9.10;;;4.10;;
76228;SDS011;65021;53.174;18.160;2023-06-22T03:08:27;6.10;;;4.20;;
76228;SDS011;65021;53.174;18.160;2023-06-22T03:10:54;7.60;;;4.10;;
76228;SDS011;65021;53.174;18.160;2023-06-22T03:13:21;6.50;;;4.00;;
76228;SDS011;65021;53.174;18.160;2023-06-22T03:15:48;5.90;;;3.20;;
76228;SDS011;65021;53.174;18.160;2023-06-22T03:18:15;6.40;;;3.60;;
76228;SDS011;65021;53.174;18.160;2023-06-22T03:20:41;6.70;;;3.80;;
76228;SDS011;65021;53.174;18.160;2023-06-22T03:23:08;5.50;;;2.90;;
76228;SDS011;65021;53.174;18.160;2023-06-22T03:25:35;8.00;;;3.50;;
76228;SDS011;65021;53.174;18.160;2023-06-22T03:28:01;6.20;;;3.50;;
76228;SDS011;65021;53.174;18.160;2023-06-22T03:30:28;7.70;;;3.70;;
76228;SDS011;65021;53.174;18.160;2023-06-22T03:32:55;6.30;;;3.40;;
76228;SDS011;65021;53.174;18.160;2023-06-22T03:35:21;6.10;;;3.80;;
76228;SDS011;65021;53.174;18.160;2023-06-22T03:37:48;5.50;;;2.70;;
76228;SDS011;65021;53.174;18.160;2023-06-22T03:40:15;7.10;;;3.40;;
76228;SDS011;65021;53.174;18.160;2023-06-22T03:42:41;7.00;;;3.00;;
76228;SDS011;65021;53.174;18.160;2023-06-22T03:45:08;5.20;;;2.80;;
76228;SDS011;65021;53.174;18.160;2023-06-22T03:47:35;7.00;;;3.10;;
76228;SDS011;65021;53.174;18.160;2023-06-22T03:50:02;6.80;;;3.20;;
76228;SDS011;65021;53.174;18.160;2023-06-22T03:52:29;5.60;;;3.00;;
76228;SDS011;65021;53.174;18.160;2023-06-22T03:54:56;6.80;;;3.60;;
76228;SDS011;65021;53.174;18.160;2023-06-22T03:57:23;7.70;;;3.00;;
76228;SDS011;65021;53.174;18.160;2023-06-22T03:59:49;6.70;;;2.90;;
76228;SDS011;65021;53.174;18.160;2023-06-22T04:02:16;5.10;;;2.90;;
76228;SDS011;65021;53.174;18.160;2023-06-22T04:04:42;5.10;;;2.30;;
76228;SDS011;65021;53.174;18.160;2023-06-22T04:07:09;6.10;;;3.60;;
76228;SDS011;65021;53.174;18.160;2023-06-22T04:09:35;5.40;;;2.10;;
76228;SDS011;65021;53.174;18.160;2023-06-22T04:12:02;9.70;;;3.40;;
76228;SDS011;65021;53.174;18.160;2023-06-22T04:14:29;7.80;;;3.60;;
76228;SDS011;65021;53.174;18.160;2023-06-22T04:16:55;6.50;;;3.90;;
76228;SDS011;65021;53.174;18.160;2023-06-22T04:19:22;9.20;;;3.70;;
76228;SDS011;65021;53.174;18.160;2023-06-22T04:21:49;6.10;;;2.50;;
76228;SDS011;65021;53.174;18.160;2023-06-22T04:24:16;7.80;;;4.30;;
76228;SDS011;65021;53.174;18.160;2023-06-22T04:26:42;6.60;;;3.70;;
76228;SDS011;65021;53.174;18.160;2023-06-22T04:29:11;6.50;;;3.80;;
76228;SDS011;65021;53.174;18.160;2023-06-22T04:31:38;6.80;;;3.70;;
76228;SDS011;65021;53.174;18.160;2023-06-22T04:34:05;7.90;;;4.20;;
76228;SDS011;65021;53.174;18.160;2023-06-22T04:36:41;5.70;;;3.40;;
76228;SDS011;65021;53.174;18.160;2023-06-22T04:39:09;8.90;;;3.40;;
76228;SDS011;65021;53.174;18.160;2023-06-22T04:41:37;5.20;;;2.70;;
76228;SDS011;65021;53.174;18.160;2023-06-22T04:44:19;7.80;;;3.80;;
76228;SDS011;65021;53.174;18.160;2023-06-22T04:46:53;8.50;;;3.20;;
76228;SDS011;65021;53.174;18.160;2023-06-22T04:49:24;8.80;;;3.80;;
76228;SDS011;65021;53.174;18.160;2023-06-22T04:51:59;5.40;;;2.20;;
76228;SDS011;65021;53.174;18.160;2023-06-22T04:54:27;5.90;;;3.20;;
76228;SDS011;65021;53.174;18.160;2023-06-22T04:56:53;6.30;;;3.40;;
76228;SDS011;65021;53.174;18.160;2023-06-22T04:59:23;7.20;;;3.90;;
76228;SDS011;65021;53.174;18.160;2023-06-22T05:01:54;8.80;;;3.30;;
76228;SDS011;65021;53.174;18.160;2023-06-22T05:04:25;5.80;;;3.10;;
76228;SDS011;65021;53.174;18.160;2023-06-22T05:09:21;6.60;;;3.40;;
76228;SDS011;65021;53.174;18.160;2023-06-22T05:11:47;6.70;;;2.60;;
76228;SDS011;65021;53.174;18.160;2023-06-22T05:14:14;5.60;;;2.70;;
76228;SDS011;65021;53.174;18.160;2023-06-22T05:16:41;8.00;;;3.50;;
76228;SDS011;65021;53.174;18.160;2023-06-22T05:19:08;6.50;;;3.50;;
76228;SDS011;65021;53.174;18.160;2023-06-22T05:21:35;6.20;;;3.20;;
76228;SDS011;65021;53.174;18.160;2023-06-22T05:24:02;6.80;;;3.30;;
76228;SDS011;65021;53.174;18.160;2023-06-22T05:26:30;5.10;;;2.60;;
76228;SDS011;65021;53.174;18.160;2023-06-22T05:28:57;7.40;;;3.50;;
76228;SDS011;65021;53.174;18.160;2023-06-22T05:31:25;7.90;;;3.70;;
76228;SDS011;65021;53.174;18.160;2023-06-22T05:33:52;4.70;;;2.20;;
76228;SDS011;65021;53.174;18.160;2023-06-22T05:36:20;9.30;;;4.10;;
76228;SDS011;65021;53.174;18.160;2023-06-22T05:38:51;7.20;;;3.70;;
76228;SDS011;65021;53.174;18.160;2023-06-22T05:41:19;8.00;;;3.60;;
76228;SDS011;65021;53.174;18.160;2023-06-22T05:43:45;7.40;;;3.20;;
76228;SDS011;65021;53.174;18.160;2023-06-22T05:46:12;5.90;;;2.70;;
76228;SDS011;65021;53.174;18.160;2023-06-22T05:48:39;7.90;;;3.50;;
76228;SDS011;65021;53.174;18.160;2023-06-22T05:51:05;6.60;;;3.30;;
76228;SDS011;65021;53.174;18.160;2023-06-22T05:53:32;6.50;;;2.80;;
76228;SDS011;65021;53.174;18.160;2023-06-22T05:55:58;5.10;;;2.80;;
76228;SDS011;65021;53.174;18.160;2023-06-22T05:58:25;6.50;;;3.20;;
76228;SDS011;65021;53.174;18.160;2023-06-22T06:00:51;9.20;;;3.80;;
76228;SDS011;65021;53.174;18.160;2023-06-22T06:03:18;7.10;;;2.80;;
76228;SDS011;65021;53.174;18.160;2023-06-22T06:05:45;8.10;;;3.30;;
76228;SDS011;65021;53.174;18.160;2023-06-22T06:08:11;4.70;;;2.60;;
76228;SDS011;65021;53.174;18.160;2023-06-22T06:10:38;6.30;;;3.30;;
76228;SDS011;65021;53.174;18.160;2023-06-22T06:13:05;5.50;;;3.00;;
76228;SDS011;65021;53.174;18.160;2023-06-22T06:15:32;6.10;;;3.50;;
76228;SDS011;65021;53.174;18.160;2023-06-22T06:17:59;6.10;;;2.80;;
76228;SDS011;65021;53.174;18.160;2023-06-22T06:20:26;7.20;;;3.20;;
76228;SDS011;65021;53.174;18.160;2023-06-22T06:22:54;7.20;;;3.10;;
76228;SDS011;65021;53.174;18.160;2023-06-22T06:25:20;6.00;;;3.40;;
76228;SDS011;65021;53.174;18.160;2023-06-22T06:27:48;7.00;;;3.50;;
76228;SDS011;65021;53.174;18.160;2023-06-22T06:30:17;6.10;;;2.50;;
76228;SDS011;65021;53.174;18.160;2023-06-22T06:32:45;5.70;;;2.90;;
76228;SDS011;65021;53.174;18.160;2023-06-22T06:35:13;7.30;;;3.20;;
76228;SDS011;65021;53.174;18.160;2023-06-22T06:37:41;4.50;;;2.40;;
76228;SDS011;65021;53.174;18.160;2023-06-22T06:40:10;7.40;;;3.20;;
76228;SDS011;65021;53.174;18.160;2023-06-22T06:42:38;4.90;;;2.20;;
76228;SDS011;65021;53.174;18.160;2023-06-22T06:45:08;7.40;;;2.80;;
76228;SDS011;65021;53.174;18.160;2023-06-22T06:47:35;5.40;;;2.70;;
76228;SDS011;65021;53.174;18.160;2023-06-22T06:50:02;4.10;;;2.30;;
76228;SDS011;65021;53.174;18.160;2023-06-22T06:52:30;5.00;;;2.60;;
76228;SDS011;65021;53.174;18.160;2023-06-22T06:54:57;4.90;;;2.80;;
76228;SDS011;65021;53.174;18.160;2023-06-22T06:57:23;4.10;;;1.80;;
76228;SDS011;65021;53.174;18.160;2023-06-22T06:59:50;4.50;;;2.00;;
76228;SDS011;65021;53.174;18.160;2023-06-22T07:02:16;4.70;;;2.40;;
76228;SDS011;65021;53.174;18.160;2023-06-22T07:04:43;6.30;;;2.30;;
76228;SDS011;65021;53.174;18.160;2023-06-22T07:07:09;5.70;;;2.20;;
76228;SDS011;65021;53.174;18.160;2023-06-22T07:09:36;7.30;;;2.10;;
76228;SDS011;65021;53.174;18.160;2023-06-22T07:12:02;6.50;;;2.60;;
76228;SDS011;65021;53.174;18.160;2023-06-22T07:14:29;5.50;;;2.30;;
76228;SDS011;65021;53.174;18.160;2023-06-22T07:16:57;6.70;;;2.40;;
76228;SDS011;65021;53.174;18.160;2023-06-22T07:19:25;4.70;;;1.70;;
76228;SDS011;65021;53.174;18.160;2023-06-22T07:21:53;5.10;;;2.00;;
76228;SDS011;65021;53.174;18.160;2023-06-22T07:24:21;4.70;;;2.20;;
76228;SDS011;65021;53.174;18.160;2023-06-22T07:26:48;7.40;;;2.30;;
76228;SDS011;65021;53.174;18.160;2023-06-22T07:29:16;6.30;;;2.20;;
76228;SDS011;65021;53.174;18.160;2023-06-22T07:31:44;5.00;;;2.10;;
76228;SDS011;65021;53.174;18.160;2023-06-22T07:34:11;4.80;;;2.00;;
76228;SDS011;65021;53.174;18.160;2023-06-22T07:36:37;4.90;;;2.10;;
76228;SDS011;65021;53.174;18.160;2023-06-22T07:39:04;5.70;;;2.30;;
76228;SDS011;65021;53.174;18.160;2023-06-22T07:41:32;4.30;;;1.90;;
76228;SDS011;65021;53.174;18.160;2023-06-22T07:43:58;4.00;;;1.80;;
76228;SDS011;65021;53.174;18.160;2023-06-22T07:46:25;4.90;;;2.40;;
76228;SDS011;65021;53.174;18.160;2023-06-22T07:48:51;4.20;;;2.20;;
76228;SDS011;65021;53.174;18.160;2023-06-22T07:51:18;5.20;;;2.30;;
76228;SDS011;65021;53.174;18.160;2023-06-22T07:53:44;4.70;;;1.90;;
76228;SDS011;65021;53.174;18.160;2023-06-22T07:56:11;4.40;;;2.10;;
76228;SDS011;65021;53.174;18.160;2023-06-22T07:58:38;4.50;;;2.10;;
76228;SDS011;65021;53.174;18.160;2023-06-22T08:01:05;5.10;;;2.40;;
76228;SDS011;65021;53.174;18.160;2023-06-22T08:03:32;4.60;;;2.20;;
76228;SDS011;65021;53.174;18.160;2023-06-22T08:05:58;4.80;;;2.00;;
76228;SDS011;65021;53.174;18.160;2023-06-22T08:08:25;4.10;;;2.00;;
76228;SDS011;65021;53.174;18.160;2023-06-22T08:10:51;5.10;;;2.40;;
76228;SDS011;65021;53.174;18.160;2023-06-22T08:13:18;4.90;;;2.10;;
76228;SDS011;65021;53.174;18.160;2023-06-22T08:15:45;3.70;;;1.60;;
76228;SDS011;65021;53.174;18.160;2023-06-22T08:18:12;3.80;;;1.60;;
76228;SDS011;65021;53.174;18.160;2023-06-22T08:20:39;4.20;;;1.80;;
76228;SDS011;65021;53.174;18.160;2023-06-22T08:23:05;5.30;;;2.20;;
76228;SDS011;65021;53.174;18.160;2023-06-22T08:25:32;5.00;;;2.40;;
76228;SDS011;65021;53.174;18.160;2023-06-22T08:28:01;4.60;;;2.10;;
76228;SDS011;65021;53.174;18.160;2023-06-22T08:30:28;4.10;;;1.80;;
76228;SDS011;65021;53.174;18.160;2023-06-22T08:32:55;4.20;;;2.10;;
76228;SDS011;65021;53.174;18.160;2023-06-22T08:35:22;5.40;;;2.50;;
76228;SDS011;65021;53.174;18.160;2023-06-22T08:37:49;5.00;;;2.20;;
76228;SDS011;65021;53.174;18.160;2023-06-22T08:40:18;4.30;;;1.90;;
76228;SDS011;65021;53.174;18.160;2023-06-22T08:42:46;5.90;;;2.10;;
76228;SDS011;65021;53.174;18.160;2023-06-22T08:45:13;4.00;;;1.90;;
76228;SDS011;65021;53.174;18.160;2023-06-22T08:47:41;4.30;;;2.00;;
76228;SDS011;65021;53.174;18.160;2023-06-22T08:50:08;6.00;;;2.20;;
76228;SDS011;65021;53.174;18.160;2023-06-22T08:52:36;4.70;;;2.40;;
76228;SDS011;65021;53.174;18.160;2023-06-22T08:55:03;4.70;;;2.20;;
76228;SDS011;65021;53.174;18.160;2023-06-22T08:57:31;5.80;;;2.40;;
76228;SDS011;65021;53.174;18.160;2023-06-22T08:59:58;4.40;;;1.80;;
76228;SDS011;65021;53.174;18.160;2023-06-22T09:02:25;4.20;;;1.90;;
76228;SDS011;65021;53.174;18.160;2023-06-22T09:04:59;5.20;;;2.20;;
76228;SDS011;65021;53.174;18.160;2023-06-22T09:07:26;4.00;;;2.00;;
76228;SDS011;65021;53.174;18.160;2023-06-22T09:09:52;4.70;;;2.00;;
76228;SDS011;65021;53.174;18.160;2023-06-22T09:12:19;4.70;;;2.20;;
76228;SDS011;65021;53.174;18.160;2023-06-22T09:14:50;4.80;;;1.40;;
76228;SDS011;65021;53.174;18.160;2023-06-22T09:17:17;4.80;;;2.10;;
76228;SDS011;65021;53.174;18.160;2023-06-22T09:19:43;4.60;;;2.10;;
76228;SDS011;65021;53.174;18.160;2023-06-22T09:22:10;4.60;;;2.00;;
76228;SDS011;65021;53.174;18.160;2023-06-22T09:24:37;4.20;;;2.10;;
76228;SDS011;65021;53.174;18.160;2023-06-22T09:27:03;6.30;;;2.10;;
76228;SDS011;65021;53.174;18.160;2023-06-22T09:29:30;5.00;;;2.00;;
76228;SDS011;65021;53.174;18.160;2023-06-22T09:31:59;3.90;;;1.60;;
76228;SDS011;65021;53.174;18.160;2023-06-22T09:34:26;4.80;;;2.40;;
76228;SDS011;65021;53.174;18.160;2023-06-22T09:36:53;3.40;;;1.60;;
76228;SDS011;65021;53.174;18.160;2023-06-22T09:39:20;3.90;;;1.40;;
76228;SDS011;65021;53.174;18.160;2023-06-22T09:41:46;5.70;;;2.10;;
76228;SDS011;65021;53.174;18.160;2023-06-22T09:44:13;5.60;;;2.40;;
76228;SDS011;65021;53.174;18.160;2023-06-22T09:46:39;6.50;;;2.10;;
76228;SDS011;65021;53.174;18.160;2023-06-22T09:49:06;3.30;;;1.60;;
76228;SDS011;65021;53.174;18.160;2023-06-22T09:51:32;5.70;;;2.40;;
76228;SDS011;65021;53.174;18.160;2023-06-22T09:53:59;5.40;;;2.30;;
76228;SDS011;65021;53.174;18.160;2023-06-22T09:56:26;4.30;;;2.00;;
76228;SDS011;65021;53.174;18.160;2023-06-22T09:58:54;4.70;;;2.40;;
76228;SDS011;65021;53.174;18.160;2023-06-22T10:01:21;4.60;;;2.10;;
76228;SDS011;65021;53.174;18.160;2023-06-22T10:03:47;3.90;;;1.70;;
76228;SDS011;65021;53.174;18.160;2023-06-22T10:06:14;5.40;;;1.80;;
76228;SDS011;65021;53.174;18.160;2023-06-22T10:08:41;4.90;;;2.20;;
76228;SDS011;65021;53.174;18.160;2023-06-22T10:11:07;4.90;;;2.10;;
76228;SDS011;65021;53.174;18.160;2023-06-22T10:13:34;5.20;;;2.10;;
76228;SDS011;65021;53.174;18.160;2023-06-22T10:16:00;3.80;;;2.00;;
76228;SDS011;65021;53.174;18.160;2023-06-22T10:18:27;3.70;;;1.80;;
76228;SDS011;65021;53.174;18.160;2023-06-22T10:20:54;4.20;;;2.10;;
76228;SDS011;65021;53.174;18.160;2023-06-22T10:23:20;4.40;;;1.80;;
76228;SDS011;65021;53.174;18.160;2023-06-22T10:25:47;3.80;;;1.90;;
76228;SDS011;65021;53.174;18.160;2023-06-22T10:28:14;3.80;;;1.70;;
76228;SDS011;65021;53.174;18.160;2023-06-22T10:30:41;5.60;;;2.20;;
76228;SDS011;65021;53.174;18.160;2023-06-22T10:33:08;5.50;;;1.90;;
76228;SDS011;65021;53.174;18.160;2023-06-22T10:35:38;4.60;;;1.70;;
76228;SDS011;65021;53.174;18.160;2023-06-22T10:38:05;4.50;;;2.30;;
76228;SDS011;65021;53.174;18.160;2023-06-22T10:40:32;4.90;;;2.00;;
76228;SDS011;65021;53.174;18.160;2023-06-22T10:42:59;4.40;;;1.90;;
76228;SDS011;65021;53.174;18.160;2023-06-22T10:45:26;4.10;;;1.80;;
76228;SDS011;65021;53.174;18.160;2023-06-22T10:47:53;4.60;;;2.00;;
76228;SDS011;65021;53.174;18.160;2023-06-22T10:50:20;3.80;;;1.90;;
76228;SDS011;65021;53.174;18.160;2023-06-22T10:52:46;3.90;;;2.00;;
76228;SDS011;65021;53.174;18.160;2023-06-22T10:55:13;5.50;;;2.20;;
76228;SDS011;65021;53.174;18.160;2023-06-22T10:57:39;3.60;;;1.80;;
76228;SDS011;65021;53.174;18.160;2023-06-22T11:00:09;4.10;;;1.70;;
76228;SDS011;65021;53.174;18.160;2023-06-22T11:02:37;3.70;;;1.90;;
76228;SDS011;65021;53.174;18.160;2023-06-22T11:05:04;4.20;;;1.70;;
76228;SDS011;65021;53.174;18.160;2023-06-22T11:07:31;4.00;;;1.70;;
76228;SDS011;65021;53.174;18.160;2023-06-22T11:09:59;4.40;;;1.70;;
76228;SDS011;65021;53.174;18.160;2023-06-22T11:12:25;4.00;;;1.60;;
76228;SDS011;65021;53.174;18.160;2023-06-22T11:14:52;4.40;;;1.70;;
76228;SDS011;65021;53.174;18.160;2023-06-22T11:17:18;4.90;;;2.00;;
76228;SDS011;65021;53.174;18.160;2023-06-22T11:19:45;4.50;;;2.10;;
76228;SDS011;65021;53.174;18.160;2023-06-22T11:22:12;4.00;;;1.50;;
76228;SDS011;65021;53.174;18.160;2023-06-22T11:24:39;3.80;;;1.60;;
76228;SDS011;65021;53.174;18.160;2023-06-22T11:27:06;4.60;;;2.20;;
76228;SDS011;65021;53.174;18.160;2023-06-22T11:29:32;4.30;;;1.80;;
76228;SDS011;65021;53.174;18.160;2023-06-22T11:31:59;4.50;;;1.90;;
76228;SDS011;65021;53.174;18.160;2023-06-22T11:34:25;3.80;;;2.00;;
76228;SDS011;65021;53.174;18.160;2023-06-22T11:36:52;4.10;;;1.90;;
76228;SDS011;65021;53.174;18.160;2023-06-22T11:39:18;3.30;;;1.30;;
76228;SDS011;65021;53.174;18.160;2023-06-22T11:41:46;4.80;;;1.80;;
76228;SDS011;65021;53.174;18.160;2023-06-22T11:44:12;4.90;;;1.80;;
76228;SDS011;65021;53.174;18.160;2023-06-22T11:46:39;5.20;;;2.20;;
76228;SDS011;65021;53.174;18.160;2023-06-22T11:49:05;4.40;;;1.90;;
76228;SDS011;65021;53.174;18.160;2023-06-22T11:51:32;6.00;;;1.90;;
76228;SDS011;65021;53.174;18.160;2023-06-22T11:53:59;3.80;;;1.50;;
76228;SDS011;65021;53.174;18.160;2023-06-22T11:56:25;3.80;;;1.90;;
76228;SDS011;65021;53.174;18.160;2023-06-22T11:58:54;4.50;;;1.90;;
76228;SDS011;65021;53.174;18.160;2023-06-22T12:01:20;5.80;;;2.20;;
76228;SDS011;65021;53.174;18.160;2023-06-22T12:03:47;4.80;;;2.10;;
76228;SDS011;65021;53.174;18.160;2023-06-22T12:06:14;3.30;;;1.70;;
76228;SDS011;65021;53.174;18.160;2023-06-22T12:08:41;3.40;;;1.70;;
76228;SDS011;65021;53.174;18.160;2023-06-22T12:11:07;3.50;;;1.40;;
76228;SDS011;65021;53.174;18.160;2023-06-22T12:13:34;4.30;;;2.00;;
76228;SDS011;65021;53.174;18.160;2023-06-22T12:16:00;4.70;;;2.00;;
76228;SDS011;65021;53.174;18.160;2023-06-22T12:18:27;5.70;;;2.00;;
76228;SDS011;65021;53.174;18.160;2023-06-22T12:20:53;4.30;;;2.00;;
76228;SDS011;65021;53.174;18.160;2023-06-22T12:23:20;3.50;;;1.90;;
76228;SDS011;65021;53.174;18.160;2023-06-22T12:25:46;3.90;;;1.70;;
76228;SDS011;65021;53.174;18.160;2023-06-22T12:28:13;4.50;;;1.80;;
76228;SDS011;65021;53.174;18.160;2023-06-22T12:30:40;4.30;;;1.60;;
76228;SDS011;65021;53.174;18.160;2023-06-22T12:33:06;3.90;;;1.90;;
76228;SDS011;65021;53.174;18.160;2023-06-22T12:35:33;5.30;;;1.90;;
76228;SDS011;65021;53.174;18.160;2023-06-22T12:37:59;3.90;;;1.60;;
76228;SDS011;65021;53.174;18.160;2023-06-22T12:40:26;7.00;;;2.00;;
76228;SDS011;65021;53.174;18.160;2023-06-22T12:42:52;4.30;;;1.70;;
76228;SDS011;65021;53.174;18.160;2023-06-22T12:45:19;4.30;;;1.90;;
76228;SDS011;65021;53.174;18.160;2023-06-22T12:47:47;5.60;;;1.90;;
76228;SDS011;65021;53.174;18.160;2023-06-22T12:50:16;3.30;;;1.30;;
76228;SDS011;65021;53.174;18.160;2023-06-22T12:52:42;3.70;;;1.60;;
76228;SDS011;65021;53.174;18.160;2023-06-22T12:55:09;4.00;;;1.90;;
76228;SDS011;65021;53.174;18.160;2023-06-22T12:57:36;3.80;;;1.70;;
76228;SDS011;65021;53.174;18.160;2023-06-22T13:00:02;4.60;;;1.80;;
76228;SDS011;65021;53.174;18.160;2023-06-22T13:02:31;3.80;;;2.00;;
76228;SDS011;65021;53.174;18.160;2023-06-22T13:04:57;4.50;;;1.90;;
76228;SDS011;65021;53.174;18.160;2023-06-22T13:07:24;4.30;;;1.90;;
76228;SDS011;65021;53.174;18.160;2023-06-22T13:09:50;5.50;;;2.00;;
76228;SDS011;65021;53.174;18.160;2023-06-22T13:12:20;4.70;;;2.00;;
76228;SDS011;65021;53.174;18.160;2023-06-22T13:14:47;4.40;;;1.80;;
76228;SDS011;65021;53.174;18.160;2023-06-22T13:17:14;4.90;;;1.80;;
76228;SDS011;65021;53.174;18.160;2023-06-22T13:19:41;5.00;;;2.10;;
76228;SDS011;65021;53.174;18.160;2023-06-22T13:24:53;5.80;;;1.80;;
76228;SDS011;65021;53.174;18.160;2023-06-22T13:27:19;5.30;;;1.50;;
76228;SDS011;65021;53.174;18.160;2023-06-22T13:29:46;4.50;;;1.80;;
76228;SDS011;65021;53.174;18.160;2023-06-22T13:32:12;3.90;;;1.60;;
76228;SDS011;65021;53.174;18.160;2023-06-22T13:34:39;9.10;;;2.30;;
76228;SDS011;65021;53.174;18.160;2023-06-22T13:37:05;5.50;;;2.10;;
76228;SDS011;65021;53.174;18.160;2023-06-22T13:39:32;3.70;;;1.40;;
76228;SDS011;65021;53.174;18.160;2023-06-22T13:41:58;4.10;;;2.00;;
76228;SDS011;65021;53.174;18.160;2023-06-22T13:44:25;4.50;;;2.00;;
76228;SDS011;65021;53.174;18.160;2023-06-22T13:46:55;4.40;;;1.70;;
76228;SDS011;65021;53.174;18.160;2023-06-22T13:49:21;4.20;;;1.90;;
76228;SDS011;65021;53.174;18.160;2023-06-22T13:51:48;4.70;;;1.60;;
76228;SDS011;65021;53.174;18.160;2023-06-22T13:54:15;4.30;;;1.90;;
76228;SDS011;65021;53.174;18.160;2023-06-22T13:56:42;3.50;;;1.90;;
76228;SDS011;65021;53.174;18.160;2023-06-22T13:59:09;4.60;;;1.80;;
76228;SDS011;65021;53.174;18.160;2023-06-22T14:01:36;4.30;;;1.80;;
76228;SDS011;65021;53.174;18.160;2023-06-22T14:04:03;4.40;;;2.00;;
76228;SDS011;65021;53.174;18.160;2023-06-22T14:06:29;4.30;;;1.80;;
76228;SDS011;65021;53.174;18.160;2023-06-22T14:08:56;3.60;;;1.20;;
76228;SDS011;65021;53.174;18.160;2023-06-22T14:11:22;3.30;;;1.50;;
76228;SDS011;65021;53.174;18.160;2023-06-22T14:13:50;7.70;;;2.40;;
76228;SDS011;65021;53.174;18.160;2023-06-22T14:16:17;4.70;;;2.00;;
76228;SDS011;65021;53.174;18.160;2023-06-22T14:18:44;5.70;;;2.10;;
76228;SDS011;65021;53.174;18.160;2023-06-22T14:21:11;5.50;;;2.10;;
76228;SDS011;65021;53.174;18.160;2023-06-22T14:23:38;5.50;;;1.70;;
76228;SDS011;65021;53.174;18.160;2023-06-22T14:26:04;4.40;;;2.00;;
76228;SDS011;65021;53.174;18.160;2023-06-22T14:28:31;4.10;;;1.80;;
76228;SDS011;65021;53.174;18.160;2023-06-22T14:30:57;4.10;;;1.80;;
76228;SDS011;65021;53.174;18.160;2023-06-22T14:33:24;5.10;;;2.20;;
76228;SDS011;65021;53.174;18.160;2023-06-22T14:35:50;3.70;;;1.50;;
76228;SDS011;65021;53.174;18.160;2023-06-22T14:38:17;4.10;;;1.80;;
76228;SDS011;65021;53.174;18.160;2023-06-22T14:40:44;4.00;;;2.10;;
76228;SDS011;65021;53.174;18.160;2023-06-22T14:43:10;3.40;;;1.80;;
76228;SDS011;65021;53.174;18.160;2023-06-22T14:45:37;7.70;;;2.20;;
76228;SDS011;65021;53.174;18.160;2023-06-22T14:48:04;3.60;;;1.80;;
76228;SDS011;65021;53.174;18.160;2023-06-22T14:50:30;4.30;;;2.00;;
76228;SDS011;65021;53.174;18.160;2023-06-22T14:52:57;5.00;;;1.80;;
76228;SDS011;65021;53.174;18.160;2023-06-22T14:58:36;6.10;;;2.10;;
76228;SDS011;65021;53.174;18.160;2023-06-22T15:01:03;5.20;;;1.80;;